Time,TemperatureF,DewpointF,PressureIn,WindDirection,WindDirectionDegrees,WindSpeedMPH,WindSpeedGustMPH,Humidity,HourlyPrecipIn,Conditions,Clouds,dailyrainin,SolarRadiationWatts/m^2,SoftwareType,DateUTC
2013-03-21 00:00:00,18.0,10.0,-100.00,WNW,292,7.0,-999.0,71,-99.99,,,-99.99,0.000000,,2013-03-21 04:00:00,
2013-03-21 00:43:00,18.0,10.0,-100.00,WNW,292,7.0,-999.0,71,-99.99,,,-99.99,0.000000,,2013-03-21 04:43:00,
2013-03-21 00:53:00,18.0,10.0,-100.00,WNW,292,7.0,-999.0,71,-99.99,,,-99.99,0.000000,,2013-03-21 04:53:00,
2013-03-21 01:00:00,17.0,10.0,-100.00,WNW,292,8.0,-999.0,71,-99.99,,,-99.99,0.000000,,2013-03-21 05:00:00,
2013-03-21 01:44:00,17.0,10.0,-100.00,WNW,292,8.0,-999.0,71,-99.99,,,-99.99,0.000000,,2013-03-21 05:44:00,
2013-03-21 01:52:00,17.0,10.0,-100.00,WNW,292,8.0,-999.0,71,-99.99,,,-99.99,0.000000,,2013-03-21 05:52:00,
2013-03-21 02:00:00,16.0,10.0,-100.00,WNW,292,7.0,-999.0,75,-99.99,,,-99.99,0.000000,,2013-03-21 06:00:00,
2013-03-21 02:42:00,16.0,10.0,-100.00,WNW,292,7.0,-999.0,75,-99.99,,,-99.99,0.000000,,2013-03-21 06:42:00,
2013-03-21 02:52:00,16.0,10.0,-100.00,WNW,292,7.0,-999.0,75,-99.99,,,-99.99,0.000000,,2013-03-21 06:52:00,
2013-03-21 03:00:00,16.0,11.0,-100.00,WNW,292,6.0,-999.0,78,-99.99,,,-99.99,0.000000,,2013-03-21 07:00:00,
2013-03-21 03:43:00,16.0,11.0,-100.00,WNW,292,6.0,-999.0,78,-99.99,,,-99.99,0.000000,,2013-03-21 07:43:00,
2013-03-21 03:53:00,16.0,11.0,-100.00,WNW,292,6.0,-999.0,78,-99.99,,,-99.99,0.000000,,2013-03-21 07:53:00,
2013-03-21 04:00:00,16.0,11.0,-100.00,West,270,7.0,-999.0,81,-99.99,,,-99.99,0.000000,,2013-03-21 08:00:00,
2013-03-21 04:43:00,16.0,11.0,-100.00,West,270,7.0,-999.0,81,-99.99,,,-99.99,0.000000,,2013-03-21 08:43:00,
2013-03-21 04:52:00,16.0,11.0,-100.00,West,270,7.0,-999.0,81,-99.99,,,-99.99,0.000000,,2013-03-21 08:52:00,
2013-03-21 05:00:00,16.0,12.0,-100.00,West,270,8.0,-999.0,82,-99.99,,,-99.99,0.000000,,2013-03-21 09:00:00,
2013-03-21 05:43:00,16.0,12.0,-100.00,West,270,8.0,-999.0,82,-99.99,,,-99.99,0.000000,,2013-03-21 09:43:00,
2013-03-21 05:53:00,16.0,12.0,-100.00,West,270,8.0,-999.0,82,-99.99,,,-99.99,0.000000,,2013-03-21 09:53:00,
2013-03-21 07:00:00,17.0,12.0,-100.00,West,270,8.0,-999.0,82,-99.99,,,-99.99,0.000000,,2013-03-21 11:00:00,
2013-03-21 07:43:00,17.0,12.0,-100.00,West,270,8.0,-999.0,82,-99.99,,,-99.99,0.000000,,2013-03-21 11:43:00,
2013-03-21 07:53:00,17.0,12.0,-100.00,West,270,8.0,-999.0,82,-99.99,,,-99.99,0.000000,,2013-03-21 11:53:00,
2013-03-21 08:00:00,17.0,12.0,-100.00,West,270,9.0,-999.0,82,-99.99,,,-99.99,5.800000,,2013-03-21 12:00:00,
2013-03-21 08:43:00,17.0,12.0,-100.00,West,270,9.0,-999.0,82,-99.99,,,-99.99,5.800000,,2013-03-21 12:43:00,
2013-03-21 08:53:00,17.0,12.0,-100.00,West,270,9.0,-999.0,82,-99.99,,,-99.99,5.800000,,2013-03-21 12:53:00,
2013-03-21 09:00:00,18.0,13.0,-100.00,WNW,292,10.0,-999.0,80,-99.99,,,-99.99,87.000000,,2013-03-21 13:00:00,
2013-03-21 09:43:00,18.0,13.0,-100.00,WNW,292,10.0,-999.0,80,-99.99,,,-99.99,87.000000,,2013-03-21 13:43:00,
2013-03-21 09:53:00,18.0,13.0,-100.00,WNW,292,10.0,-999.0,80,-99.99,,,-99.99,87.000000,,2013-03-21 13:53:00,
2013-03-21 10:00:00,21.0,15.0,-100.00,WNW,292,11.0,-999.0,78,-99.99,,,-99.99,205.320007,,2013-03-21 14:00:00,
2013-03-21 10:43:00,21.0,15.0,-100.00,WNW,292,11.0,-999.0,78,-99.99,,,-99.99,205.320007,,2013-03-21 14:43:00,
2013-03-21 10:52:00,21.0,15.0,-100.00,WNW,292,11.0,-999.0,78,-99.99,,,-99.99,205.320007,,2013-03-21 14:52:00,
2013-03-21 11:00:00,23.0,17.0,-100.00,NW,315,10.0,-999.0,75,-99.99,,,-99.99,153.119995,,2013-03-21 15:00:00,
2013-03-21 11:43:00,23.0,17.0,-100.00,NW,315,10.0,-999.0,75,-99.99,,,-99.99,153.119995,,2013-03-21 15:43:00,
2013-03-21 11:53:00,23.0,17.0,-100.00,NW,315,10.0,-999.0,75,-99.99,,,-99.99,153.119995,,2013-03-21 15:53:00,
2013-03-21 12:00:00,26.0,18.0,-100.00,NW,315,11.0,-999.0,69,-99.99,,,-99.99,307.399994,,2013-03-21 16:00:00,
2013-03-21 12:42:00,26.0,18.0,-100.00,NW,315,11.0,-999.0,69,-99.99,,,-99.99,307.399994,,2013-03-21 16:42:00,
2013-03-21 12:53:00,26.0,18.0,-100.00,NW,315,11.0,-999.0,69,-99.99,,,-99.99,307.399994,,2013-03-21 16:53:00,
2013-03-21 13:00:00,28.0,19.0,-100.00,NW,315,10.0,-999.0,68,-99.99,,,-99.99,250.559998,,2013-03-21 17:00:00,
2013-03-21 13:43:00,28.0,19.0,-100.00,NW,315,10.0,-999.0,68,-99.99,,,-99.99,250.559998,,2013-03-21 17:43:00,
2013-03-21 13:53:00,28.0,19.0,-100.00,NW,315,10.0,-999.0,68,-99.99,,,-99.99,250.559998,,2013-03-21 17:53:00,
2013-03-21 14:00:00,29.0,19.0,-100.00,NW,315,11.0,-999.0,64,-99.99,,,-99.99,303.920013,,2013-03-21 18:00:00,
2013-03-21 14:43:00,29.0,19.0,-100.00,NW,315,11.0,-999.0,64,-99.99,,,-99.99,303.920013,,2013-03-21 18:43:00,
2013-03-21 14:52:00,29.0,19.0,-100.00,NW,315,11.0,-999.0,64,-99.99,,,-99.99,303.920013,,2013-03-21 18:52:00,
2013-03-21 15:00:00,31.0,17.0,-100.00,NW,315,12.0,-999.0,57,-99.99,,,-99.99,303.920013,,2013-03-21 19:00:00,
2013-03-21 15:43:00,31.0,17.0,-100.00,NW,315,12.0,-999.0,57,-99.99,,,-99.99,303.920013,,2013-03-21 19:43:00,
2013-03-21 15:53:00,31.0,17.0,-100.00,NW,315,12.0,-999.0,57,-99.99,,,-99.99,303.920013,,2013-03-21 19:53:00,
2013-03-21 16:00:00,31.0,17.0,-100.00,NW,315,13.0,-999.0,57,-99.99,,,-99.99,200.679993,,2013-03-21 20:00:00,
2013-03-21 16:43:00,31.0,17.0,-100.00,NW,315,13.0,-999.0,57,-99.99,,,-99.99,200.679993,,2013-03-21 20:43:00,
2013-03-21 16:53:00,31.0,17.0,-100.00,NW,315,13.0,-999.0,57,-99.99,,,-99.99,200.679993,,2013-03-21 20:53:00,
2013-03-21 18:00:00,31.0,18.0,-100.00,NW,315,11.0,-999.0,58,-99.99,,,-99.99,91.639999,,2013-03-21 22:00:00,
2013-03-21 18:43:00,31.0,18.0,-100.00,NW,315,11.0,-999.0,58,-99.99,,,-99.99,91.639999,,2013-03-21 22:43:00,
2013-03-21 18:53:00,31.0,18.0,-100.00,NW,315,11.0,-999.0,58,-99.99,,,-99.99,91.639999,,2013-03-21 22:53:00,
2013-03-21 19:00:00,31.0,19.0,-100.00,NW,315,10.0,-999.0,61,-99.99,,,-99.99,26.680000,,2013-03-21 23:00:00,
2013-03-21 19:43:00,31.0,19.0,-100.00,NW,315,10.0,-999.0,61,-99.99,,,-99.99,26.680000,,2013-03-21 23:43:00,
2013-03-21 19:53:00,31.0,19.0,-100.00,NW,315,10.0,-999.0,61,-99.99,,,-99.99,26.680000,,2013-03-21 23:53:00,
2013-03-21 21:00:00,29.0,21.0,-100.00,WNW,292,11.0,-999.0,73,-99.99,,,-99.99,0.000000,,2013-03-22 01:00:00,
2013-03-21 21:43:00,29.0,21.0,-100.00,WNW,292,11.0,-999.0,73,-99.99,,,-99.99,0.000000,,2013-03-22 01:43:00,
2013-03-21 21:53:00,29.0,21.0,-100.00,WNW,292,11.0,-999.0,73,-99.99,,,-99.99,0.000000,,2013-03-22 01:53:00,
2013-03-21 22:00:00,28.0,22.0,-100.00,WNW,292,12.0,-999.0,78,-99.99,,,-99.99,0.000000,,2013-03-22 02:00:00,
2013-03-21 22:43:00,28.0,22.0,-100.00,WNW,292,12.0,-999.0,78,-99.99,,,-99.99,0.000000,,2013-03-22 02:43:00,
2013-03-21 22:53:00,28.0,22.0,-100.00,WNW,292,12.0,-999.0,78,-99.99,,,-99.99,0.000000,,2013-03-22 02:53:00,
2013-03-21 23:00:00,27.0,20.0,-100.00,WNW,292,10.0,-999.0,74,-99.99,,,-99.99,0.000000,,2013-03-22 03:00:00,
2013-03-21 23:43:00,27.0,20.0,-100.00,WNW,292,10.0,-999.0,74,-99.99,,,-99.99,0.000000,,2013-03-22 03:43:00,
2013-03-21 23:53:00,27.0,20.0,-100.00,WNW,292,10.0,-999.0,74,-99.99,,,-99.99,0.000000,,2013-03-22 03:53:00,